Terminal Aerodrome Forecast
Issued by NWS Knoxville/Tri Cities, TN

Home | Current Version | Previous Version | Text Only | Print | Product List | Glossary On
Versions: 1 2 3 4 5 6 7 8 9 10 11 12 13 14 15 16 17
000
FTUS44 KMRX 191720
TAFCHA
TAF
KCHA 191720Z 1918/2018 VRB04KT P6SM VCSH BKN030 OVC250
     FM192300 09004KT 5SM -RA BR OVC020
     FM200600 18006KT 3SM -RA BR OVC010
     FM201400 19003KT 4SM BR OVC007=

USA.gov is the U.S. government's official web portal to all federal, state and local government web resources and services.